sensor_id;sensor_type;location;lat;lon;timestamp;temperature;humidity
11536;DHT22;5824;49.336;8.652;2023-11-19T00:00:53;9.50;1.00
11536;DHT22;5824;49.336;8.652;2023-11-19T00:03:18;9.40;1.00
11536;DHT22;5824;49.336;8.652;2023-11-19T00:05:44;9.50;1.00
11536;DHT22;5824;49.336;8.652;2023-11-19T00:08:12;9.50;1.00
11536;DHT22;5824;49.336;8.652;2023-11-19T00:10:38;9.50;1.00
11536;DHT22;5824;49.336;8.652;2023-11-19T00:13:03;9.50;1.00
11536;DHT22;5824;49.336;8.652;2023-11-19T00:15:29;9.60;1.00
11536;DHT22;5824;49.336;8.652;2023-11-19T00:17:55;9.60;1.00
11536;DHT22;5824;49.336;8.652;2023-11-19T00:20:20;9.70;1.00
11536;DHT22;5824;49.336;8.652;2023-11-19T00:22:49;9.70;1.00
11536;DHT22;5824;49.336;8.652;2023-11-19T00:25:20;9.70;1.00
11536;DHT22;5824;49.336;8.652;2023-11-19T00:27:46;9.70;1.00
11536;DHT22;5824;49.336;8.652;2023-11-19T00:30:12;9.80;1.00
11536;DHT22;5824;49.336;8.652;2023-11-19T00:32:39;9.80;1.00
11536;DHT22;5824;49.336;8.652;2023-11-19T00:35:05;9.90;1.00
11536;DHT22;5824;49.336;8.652;2023-11-19T00:37:31;9.90;1.00
11536;DHT22;5824;49.336;8.652;2023-11-19T00:39:57;9.90;1.00
11536;DHT22;5824;49.336;8.652;2023-11-19T00:42:23;10.00;1.00
11536;DHT22;5824;49.336;8.652;2023-11-19T00:44:52;9.90;1.00
11536;DHT22;5824;49.336;8.652;2023-11-19T00:47:18;9.90;1.00
11536;DHT22;5824;49.336;8.652;2023-11-19T00:49:48;9.90;1.00
11536;DHT22;5824;49.336;8.652;2023-11-19T00:52:14;9.90;1.00
11536;DHT22;5824;49.336;8.652;2023-11-19T00:54:40;9.90;1.00
11536;DHT22;5824;49.336;8.652;2023-11-19T00:57:06;9.90;1.00
11536;DHT22;5824;49.336;8.652;2023-11-19T00:59:31;9.90;1.00
11536;DHT22;5824;49.336;8.652;2023-11-19T01:01:58;9.90;1.00
11536;DHT22;5824;49.336;8.652;2023-11-19T01:04:24;9.90;1.00
11536;DHT22;5824;49.336;8.652;2023-11-19T01:06:49;10.00;1.00
11536;DHT22;5824;49.336;8.652;2023-11-19T01:09:15;10.00;1.00
11536;DHT22;5824;49.336;8.652;2023-11-19T01:11:41;10.00;1.00
11536;DHT22;5824;49.336;8.652;2023-11-19T01:14:06;10.00;1.00
11536;DHT22;5824;49.336;8.652;2023-11-19T01:16:32;10.00;1.00
11536;DHT22;5824;49.336;8.652;2023-11-19T01:21:24;10.00;1.00
11536;DHT22;5824;49.336;8.652;2023-11-19T01:23:49;10.00;1.00
11536;DHT22;5824;49.336;8.652;2023-11-19T01:26:15;10.00;1.00
11536;DHT22;5824;49.336;8.652;2023-11-19T01:28:40;10.00;1.00
11536;DHT22;5824;49.336;8.652;2023-11-19T01:31:10;10.00;1.00
11536;DHT22;5824;49.336;8.652;2023-11-19T01:33:36;10.10;1.00
11536;DHT22;5824;49.336;8.652;2023-11-19T01:36:02;10.10;1.00
11536;DHT22;5824;49.336;8.652;2023-11-19T01:38:28;10.00;1.00
11536;DHT22;5824;49.336;8.652;2023-11-19T01:40:57;10.00;1.00
11536;DHT22;5824;49.336;8.652;2023-11-19T01:43:36;10.00;1.00
11536;DHT22;5824;49.336;8.652;2023-11-19T01:46:05;10.00;1.00
11536;DHT22;5824;49.336;8.652;2023-11-19T01:48:33;10.20;1.00
11536;DHT22;5824;49.336;8.652;2023-11-19T01:50:59;10.00;1.00
11536;DHT22;5824;49.336;8.652;2023-11-19T01:53:25;10.00;1.00
11536;DHT22;5824;49.336;8.652;2023-11-19T01:55:51;10.00;1.00
11536;DHT22;5824;49.336;8.652;2023-11-19T01:58:18;10.00;1.00
11536;DHT22;5824;49.336;8.652;2023-11-19T02:00:44;10.00;1.00
11536;DHT22;5824;49.336;8.652;2023-11-19T02:03:11;10.00;1.00
11536;DHT22;5824;49.336;8.652;2023-11-19T02:05:37;10.00;1.00
11536;DHT22;5824;49.336;8.652;2023-11-19T02:08:04;10.00;1.00
11536;DHT22;5824;49.336;8.652;2023-11-19T02:10:29;10.10;1.00
11536;DHT22;5824;49.336;8.652;2023-11-19T02:12:57;10.00;1.00
11536;DHT22;5824;49.336;8.652;2023-11-19T02:15:23;10.10;1.00
11536;DHT22;5824;49.336;8.652;2023-11-19T02:17:50;10.10;1.00
11536;DHT22;5824;49.336;8.652;2023-11-19T02:20:16;10.10;1.00
11536;DHT22;5824;49.336;8.652;2023-11-19T02:22:41;10.10;1.00
11536;DHT22;5824;49.336;8.652;2023-11-19T02:25:22;10.10;1.00
11536;DHT22;5824;49.336;8.652;2023-11-19T02:27:55;10.20;1.00
11536;DHT22;5824;49.336;8.652;2023-11-19T02:30:22;10.20;1.00
11536;DHT22;5824;49.336;8.652;2023-11-19T02:32:58;10.20;1.00
11536;DHT22;5824;49.336;8.652;2023-11-19T02:35:26;10.10;1.00
11536;DHT22;5824;49.336;8.652;2023-11-19T02:37:56;10.10;1.00
11536;DHT22;5824;49.336;8.652;2023-11-19T02:40:21;10.20;1.00
11536;DHT22;5824;49.336;8.652;2023-11-19T02:42:49;10.20;1.00
11536;DHT22;5824;49.336;8.652;2023-11-19T02:45:15;10.20;1.00
11536;DHT22;5824;49.336;8.652;2023-11-19T02:47:41;10.20;1.00
11536;DHT22;5824;49.336;8.652;2023-11-19T02:50:08;10.20;1.00
11536;DHT22;5824;49.336;8.652;2023-11-19T02:52:43;10.30;1.00
11536;DHT22;5824;49.336;8.652;2023-11-19T02:55:12;10.30;1.00
11536;DHT22;5824;49.336;8.652;2023-11-19T02:57:38;10.40;1.00
11536;DHT22;5824;49.336;8.652;2023-11-19T03:02:40;10.40;1.00
11536;DHT22;5824;49.336;8.652;2023-11-19T03:05:14;10.40;1.00
11536;DHT22;5824;49.336;8.652;2023-11-19T03:07:43;10.40;1.00
11536;DHT22;5824;49.336;8.652;2023-11-19T03:10:11;10.40;1.00
11536;DHT22;5824;49.336;8.652;2023-11-19T03:12:40;10.50;1.00
11536;DHT22;5824;49.336;8.652;2023-11-19T03:15:07;10.50;1.00
11536;DHT22;5824;49.336;8.652;2023-11-19T03:17:41;10.50;1.00
11536;DHT22;5824;49.336;8.652;2023-11-19T03:20:09;10.50;1.00
11536;DHT22;5824;49.336;8.652;2023-11-19T03:22:36;10.50;1.00
11536;DHT22;5824;49.336;8.652;2023-11-19T03:25:02;10.50;1.00
11536;DHT22;5824;49.336;8.652;2023-11-19T03:27:28;10.60;1.00
11536;DHT22;5824;49.336;8.652;2023-11-19T03:29:53;10.60;1.00
11536;DHT22;5824;49.336;8.652;2023-11-19T03:32:19;10.60;1.00
11536;DHT22;5824;49.336;8.652;2023-11-19T03:34:45;11.00;1.00
11536;DHT22;5824;49.336;8.652;2023-11-19T03:37:10;10.60;1.00
11536;DHT22;5824;49.336;8.652;2023-11-19T03:39:36;10.60;1.00
11536;DHT22;5824;49.336;8.652;2023-11-19T03:42:02;10.60;1.00
11536;DHT22;5824;49.336;8.652;2023-11-19T03:44:28;10.70;1.00
11536;DHT22;5824;49.336;8.652;2023-11-19T03:46:54;10.70;1.00
11536;DHT22;5824;49.336;8.652;2023-11-19T03:49:19;10.70;1.00
11536;DHT22;5824;49.336;8.652;2023-11-19T03:51:45;10.70;1.00
11536;DHT22;5824;49.336;8.652;2023-11-19T03:54:10;10.70;1.00
11536;DHT22;5824;49.336;8.652;2023-11-19T03:56:37;10.80;1.00
11536;DHT22;5824;49.336;8.652;2023-11-19T03:59:02;10.80;1.00
11536;DHT22;5824;49.336;8.652;2023-11-19T04:01:28;10.80;1.00
11536;DHT22;5824;49.336;8.652;2023-11-19T04:03:54;10.80;1.00
11536;DHT22;5824;49.336;8.652;2023-11-19T04:06:21;11.10;1.00
11536;DHT22;5824;49.336;8.652;2023-11-19T04:08:46;10.90;1.00
11536;DHT22;5824;49.336;8.652;2023-11-19T04:11:12;10.90;1.00
11536;DHT22;5824;49.336;8.652;2023-11-19T04:13:37;10.90;1.00
11536;DHT22;5824;49.336;8.652;2023-11-19T04:16:03;10.90;1.00
11536;DHT22;5824;49.336;8.652;2023-11-19T04:18:29;10.90;1.00
11536;DHT22;5824;49.336;8.652;2023-11-19T04:20:55;11.00;1.00
11536;DHT22;5824;49.336;8.652;2023-11-19T04:23:21;11.00;1.00
11536;DHT22;5824;49.336;8.652;2023-11-19T04:25:46;11.00;1.00
11536;DHT22;5824;49.336;8.652;2023-11-19T04:28:12;11.00;1.00
11536;DHT22;5824;49.336;8.652;2023-11-19T04:30:37;11.00;1.00
11536;DHT22;5824;49.336;8.652;2023-11-19T04:33:03;11.00;1.00
11536;DHT22;5824;49.336;8.652;2023-11-19T04:35:28;11.10;1.00
11536;DHT22;5824;49.336;8.652;2023-11-19T04:37:54;11.10;1.00
11536;DHT22;5824;49.336;8.652;2023-11-19T04:40:22;11.10;1.00
11536;DHT22;5824;49.336;8.652;2023-11-19T04:42:48;10.70;1.00
11536;DHT22;5824;49.336;8.652;2023-11-19T04:45:14;11.10;1.00
11536;DHT22;5824;49.336;8.652;2023-11-19T04:47:39;11.10;1.00
11536;DHT22;5824;49.336;8.652;2023-11-19T04:50:05;11.20;1.00
11536;DHT22;5824;49.336;8.652;2023-11-19T04:52:31;11.10;1.00
11536;DHT22;5824;49.336;8.652;2023-11-19T04:54:56;11.20;1.00
11536;DHT22;5824;49.336;8.652;2023-11-19T04:57:22;11.20;1.00
11536;DHT22;5824;49.336;8.652;2023-11-19T04:59:47;11.20;1.00
11536;DHT22;5824;49.336;8.652;2023-11-19T05:02:13;11.20;1.00
11536;DHT22;5824;49.336;8.652;2023-11-19T05:04:42;11.20;1.00
11536;DHT22;5824;49.336;8.652;2023-11-19T05:07:09;11.20;1.00
11536;DHT22;5824;49.336;8.652;2023-11-19T05:09:35;11.20;1.00
11536;DHT22;5824;49.336;8.652;2023-11-19T05:12:00;11.30;1.00
11536;DHT22;5824;49.336;8.652;2023-11-19T05:14:27;11.30;1.00
11536;DHT22;5824;49.336;8.652;2023-11-19T05:16:53;11.30;1.00
11536;DHT22;5824;49.336;8.652;2023-11-19T05:19:18;11.30;1.00
11536;DHT22;5824;49.336;8.652;2023-11-19T05:21:44;11.30;1.00
11536;DHT22;5824;49.336;8.652;2023-11-19T05:24:10;11.30;1.00
11536;DHT22;5824;49.336;8.652;2023-11-19T05:26:37;11.30;1.00
11536;DHT22;5824;49.336;8.652;2023-11-19T05:29:02;11.40;1.00
11536;DHT22;5824;49.336;8.652;2023-11-19T05:31:28;11.40;1.00
11536;DHT22;5824;49.336;8.652;2023-11-19T05:33:53;11.40;1.00
11536;DHT22;5824;49.336;8.652;2023-11-19T05:36:19;11.40;1.00
11536;DHT22;5824;49.336;8.652;2023-11-19T05:38:44;11.50;1.00
11536;DHT22;5824;49.336;8.652;2023-11-19T05:41:10;11.50;1.00
11536;DHT22;5824;49.336;8.652;2023-11-19T05:43:35;11.50;1.00
11536;DHT22;5824;49.336;8.652;2023-11-19T05:46:01;11.50;1.00
11536;DHT22;5824;49.336;8.652;2023-11-19T05:48:27;13.40;1.00
11536;DHT22;5824;49.336;8.652;2023-11-19T05:50:53;11.60;1.00
11536;DHT22;5824;49.336;8.652;2023-11-19T05:53:20;11.60;1.00
11536;DHT22;5824;49.336;8.652;2023-11-19T05:55:45;11.60;1.00
11536;DHT22;5824;49.336;8.652;2023-11-19T05:58:22;11.60;1.00
11536;DHT22;5824;49.336;8.652;2023-11-19T06:00:48;11.60;1.00
11536;DHT22;5824;49.336;8.652;2023-11-19T06:03:16;11.60;1.00
11536;DHT22;5824;49.336;8.652;2023-11-19T06:05:44;11.60;1.00
11536;DHT22;5824;49.336;8.652;2023-11-19T06:08:10;11.60;1.00
11536;DHT22;5824;49.336;8.652;2023-11-19T06:10:38;11.60;1.00
11536;DHT22;5824;49.336;8.652;2023-11-19T06:13:04;11.60;1.00
11536;DHT22;5824;49.336;8.652;2023-11-19T06:15:30;11.70;1.00
11536;DHT22;5824;49.336;8.652;2023-11-19T06:17:58;11.70;1.00
11536;DHT22;5824;49.336;8.652;2023-11-19T06:20:26;11.70;1.00
11536;DHT22;5824;49.336;8.652;2023-11-19T06:22:53;11.70;1.00
11536;DHT22;5824;49.336;8.652;2023-11-19T06:25:18;11.80;1.00
11536;DHT22;5824;49.336;8.652;2023-11-19T06:27:44;11.80;1.00
11536;DHT22;5824;49.336;8.652;2023-11-19T06:30:10;13.60;1.00
11536;DHT22;5824;49.336;8.652;2023-11-19T06:32:35;11.90;1.00
11536;DHT22;5824;49.336;8.652;2023-11-19T06:35:01;12.00;1.00
11536;DHT22;5824;49.336;8.652;2023-11-19T06:37:26;12.00;1.00
11536;DHT22;5824;49.336;8.652;2023-11-19T06:39:52;12.00;1.00
11536;DHT22;5824;49.336;8.652;2023-11-19T06:42:18;12.10;1.00
11536;DHT22;5824;49.336;8.652;2023-11-19T06:44:43;12.10;1.00
11536;DHT22;5824;49.336;8.652;2023-11-19T06:47:09;12.10;1.00
11536;DHT22;5824;49.336;8.652;2023-11-19T06:49:34;12.10;1.00
11536;DHT22;5824;49.336;8.652;2023-11-19T06:52:00;12.10;1.00
11536;DHT22;5824;49.336;8.652;2023-11-19T06:54:25;12.10;1.00
11536;DHT22;5824;49.336;8.652;2023-11-19T06:56:51;12.10;1.00
11536;DHT22;5824;49.336;8.652;2023-11-19T06:59:16;12.20;1.00
11536;DHT22;5824;49.336;8.652;2023-11-19T07:01:42;12.20;1.00
11536;DHT22;5824;49.336;8.652;2023-11-19T07:04:13;12.20;1.00
11536;DHT22;5824;49.336;8.652;2023-11-19T07:06:39;12.20;1.00
11536;DHT22;5824;49.336;8.652;2023-11-19T07:09:07;12.30;1.00
11536;DHT22;5824;49.336;8.652;2023-11-19T07:11:39;12.20;1.00
11536;DHT22;5824;49.336;8.652;2023-11-19T07:14:06;12.30;1.00
11536;DHT22;5824;49.336;8.652;2023-11-19T07:16:32;12.30;1.00
11536;DHT22;5824;49.336;8.652;2023-11-19T07:19:00;12.40;1.00
11536;DHT22;5824;49.336;8.652;2023-11-19T07:21:26;12.40;1.00
11536;DHT22;5824;49.336;8.652;2023-11-19T07:23:53;12.70;1.00
11536;DHT22;5824;49.336;8.652;2023-11-19T07:26:19;12.50;1.00
11536;DHT22;5824;49.336;8.652;2023-11-19T07:28:44;12.60;1.00
11536;DHT22;5824;49.336;8.652;2023-11-19T07:31:10;12.60;1.00
11536;DHT22;5824;49.336;8.652;2023-11-19T07:33:36;12.60;1.00
11536;DHT22;5824;49.336;8.652;2023-11-19T07:36:02;12.60;1.00
11536;DHT22;5824;49.336;8.652;2023-11-19T07:38:27;12.60;1.00
11536;DHT22;5824;49.336;8.652;2023-11-19T07:40:53;12.60;1.00
11536;DHT22;5824;49.336;8.652;2023-11-19T07:43:19;12.60;1.00
11536;DHT22;5824;49.336;8.652;2023-11-19T07:45:44;12.60;1.00
11536;DHT22;5824;49.336;8.652;2023-11-19T07:48:11;12.50;1.00
11536;DHT22;5824;49.336;8.652;2023-11-19T07:50:38;12.50;1.00
11536;DHT22;5824;49.336;8.652;2023-11-19T07:53:04;12.40;1.00
11536;DHT22;5824;49.336;8.652;2023-11-19T07:55:30;12.40;1.00
11536;DHT22;5824;49.336;8.652;2023-11-19T07:57:55;12.40;1.00
11536;DHT22;5824;49.336;8.652;2023-11-19T08:00:21;12.40;1.00
11536;DHT22;5824;49.336;8.652;2023-11-19T08:02:46;12.40;1.00
11536;DHT22;5824;49.336;8.652;2023-11-19T08:05:12;12.40;1.00
11536;DHT22;5824;49.336;8.652;2023-11-19T08:07:38;12.40;1.00
11536;DHT22;5824;49.336;8.652;2023-11-19T08:10:04;12.40;1.00
11536;DHT22;5824;49.336;8.652;2023-11-19T08:12:31;12.40;1.00
11536;DHT22;5824;49.336;8.652;2023-11-19T08:14:56;12.40;1.00
11536;DHT22;5824;49.336;8.652;2023-11-19T08:17:24;12.50;1.00
11536;DHT22;5824;49.336;8.652;2023-11-19T08:19:49;12.40;1.00
11536;DHT22;5824;49.336;8.652;2023-11-19T08:22:15;12.40;1.00
11536;DHT22;5824;49.336;8.652;2023-11-19T08:24:42;12.40;1.00
11536;DHT22;5824;49.336;8.652;2023-11-19T08:27:08;12.50;1.00
11536;DHT22;5824;49.336;8.652;2023-11-19T08:29:33;12.60;1.00
11536;DHT22;5824;49.336;8.652;2023-11-19T08:32:00;12.60;1.00
11536;DHT22;5824;49.336;8.652;2023-11-19T08:34:27;12.70;1.00
11536;DHT22;5824;49.336;8.652;2023-11-19T08:36:52;12.70;1.00
11536;DHT22;5824;49.336;8.652;2023-11-19T08:39:19;12.80;1.00
11536;DHT22;5824;49.336;8.652;2023-11-19T08:41:44;12.90;1.00
11536;DHT22;5824;49.336;8.652;2023-11-19T08:44:10;13.00;1.00
11536;DHT22;5824;49.336;8.652;2023-11-19T08:46:35;13.00;1.00
11536;DHT22;5824;49.336;8.652;2023-11-19T08:49:01;13.00;1.00
11536;DHT22;5824;49.336;8.652;2023-11-19T08:51:26;13.10;1.00
11536;DHT22;5824;49.336;8.652;2023-11-19T08:53:53;13.20;1.00
11536;DHT22;5824;49.336;8.652;2023-11-19T08:56:19;13.30;1.00
11536;DHT22;5824;49.336;8.652;2023-11-19T09:01:14;14.10;1.00
11536;DHT22;5824;49.336;8.652;2023-11-19T09:03:39;13.90;1.00
11536;DHT22;5824;49.336;8.652;2023-11-19T09:06:06;13.80;1.00
11536;DHT22;5824;49.336;8.652;2023-11-19T09:08:31;14.30;1.00
11536;DHT22;5824;49.336;8.652;2023-11-19T09:10:57;15.10;1.00
11536;DHT22;5824;49.336;8.652;2023-11-19T09:13:22;15.30;1.00
11536;DHT22;5824;49.336;8.652;2023-11-19T09:15:48;14.90;1.00
11536;DHT22;5824;49.336;8.652;2023-11-19T09:18:13;14.60;1.00
11536;DHT22;5824;49.336;8.652;2023-11-19T09:20:39;14.50;1.00
11536;DHT22;5824;49.336;8.652;2023-11-19T09:23:05;14.10;1.00
11536;DHT22;5824;49.336;8.652;2023-11-19T09:25:31;14.00;1.00
11536;DHT22;5824;49.336;8.652;2023-11-19T09:27:57;13.90;1.00
11536;DHT22;5824;49.336;8.652;2023-11-19T09:30:22;13.90;1.00
11536;DHT22;5824;49.336;8.652;2023-11-19T09:32:48;14.00;1.00
11536;DHT22;5824;49.336;8.652;2023-11-19T09:35:14;15.00;1.00
11536;DHT22;5824;49.336;8.652;2023-11-19T09:37:40;16.00;1.00
11536;DHT22;5824;49.336;8.652;2023-11-19T09:40:06;16.40;1.00
11536;DHT22;5824;49.336;8.652;2023-11-19T09:42:44;16.70;1.00
11536;DHT22;5824;49.336;8.652;2023-11-19T09:45:14;18.40;1.00
11536;DHT22;5824;49.336;8.652;2023-11-19T09:47:44;19.20;1.00
11536;DHT22;5824;49.336;8.652;2023-11-19T09:50:16;18.50;1.00
11536;DHT22;5824;49.336;8.652;2023-11-19T09:52:41;18.10;1.00
11536;DHT22;5824;49.336;8.652;2023-11-19T09:55:07;18.10;1.00
11536;DHT22;5824;49.336;8.652;2023-11-19T09:57:34;17.90;1.00
11536;DHT22;5824;49.336;8.652;2023-11-19T10:00:02;18.20;1.00
11536;DHT22;5824;49.336;8.652;2023-11-19T10:02:31;18.80;1.00
11536;DHT22;5824;49.336;8.652;2023-11-19T10:04:59;20.00;1.00
11536;DHT22;5824;49.336;8.652;2023-11-19T10:07:25;20.70;1.00
11536;DHT22;5824;49.336;8.652;2023-11-19T10:09:50;19.60;1.00
11536;DHT22;5824;49.336;8.652;2023-11-19T10:12:16;19.40;1.00
11536;DHT22;5824;49.336;8.652;2023-11-19T10:14:43;19.40;1.00
11536;DHT22;5824;49.336;8.652;2023-11-19T10:17:09;20.10;1.00
11536;DHT22;5824;49.336;8.652;2023-11-19T10:19:35;21.40;1.00
11536;DHT22;5824;49.336;8.652;2023-11-19T10:22:10;21.60;1.00
11536;DHT22;5824;49.336;8.652;2023-11-19T10:24:36;22.50;1.00
11536;DHT22;5824;49.336;8.652;2023-11-19T10:27:07;24.10;1.00
11536;DHT22;5824;49.336;8.652;2023-11-19T10:29:39;25.40;1.00
11536;DHT22;5824;49.336;8.652;2023-11-19T10:32:04;25.40;1.00
11536;DHT22;5824;49.336;8.652;2023-11-19T10:34:30;26.20;1.00
11536;DHT22;5824;49.336;8.652;2023-11-19T10:36:56;26.60;1.00
11536;DHT22;5824;49.336;8.652;2023-11-19T10:39:21;26.10;1.00
11536;DHT22;5824;49.336;8.652;2023-11-19T10:41:49;26.10;1.00
11536;DHT22;5824;49.336;8.652;2023-11-19T10:44:31;25.40;1.00
11536;DHT22;5824;49.336;8.652;2023-11-19T10:46:59;25.50;1.00
11536;DHT22;5824;49.336;8.652;2023-11-19T10:49:24;25.70;1.00
11536;DHT22;5824;49.336;8.652;2023-11-19T10:51:50;26.80;1.00
11536;DHT22;5824;49.336;8.652;2023-11-19T10:54:19;26.90;1.00
11536;DHT22;5824;49.336;8.652;2023-11-19T10:56:45;26.60;1.00
11536;DHT22;5824;49.336;8.652;2023-11-19T10:59:15;27.70;1.00
11536;DHT22;5824;49.336;8.652;2023-11-19T11:01:45;27.80;1.00
11536;DHT22;5824;49.336;8.652;2023-11-19T11:04:14;26.60;1.00
11536;DHT22;5824;49.336;8.652;2023-11-19T11:06:41;24.90;1.00
11536;DHT22;5824;49.336;8.652;2023-11-19T11:09:07;23.60;1.00
11536;DHT22;5824;49.336;8.652;2023-11-19T11:11:38;22.00;1.00
11536;DHT22;5824;49.336;8.652;2023-11-19T11:14:05;21.10;1.00
11536;DHT22;5824;49.336;8.652;2023-11-19T11:16:31;19.70;1.00
11536;DHT22;5824;49.336;8.652;2023-11-19T11:18:58;18.30;1.00
11536;DHT22;5824;49.336;8.652;2023-11-19T11:21:26;18.30;1.00
11536;DHT22;5824;49.336;8.652;2023-11-19T11:27:08;17.80;1.00
11536;DHT22;5824;49.336;8.652;2023-11-19T11:29:51;17.40;1.00
11536;DHT22;5824;49.336;8.652;2023-11-19T11:35:41;17.50;1.00
11536;DHT22;5824;49.336;8.652;2023-11-19T11:38:09;18.00;1.00
11536;DHT22;5824;49.336;8.652;2023-11-19T11:40:35;18.00;1.00
11536;DHT22;5824;49.336;8.652;2023-11-19T11:43:04;18.60;1.00
11536;DHT22;5824;49.336;8.652;2023-11-19T11:45:38;20.50;1.00
11536;DHT22;5824;49.336;8.652;2023-11-19T11:48:10;20.80;1.00
11536;DHT22;5824;49.336;8.652;2023-11-19T11:50:49;19.90;1.00
11536;DHT22;5824;49.336;8.652;2023-11-19T11:53:22;19.50;1.00
11536;DHT22;5824;49.336;8.652;2023-11-19T11:58:19;18.90;1.00
11536;DHT22;5824;49.336;8.652;2023-11-19T12:00:47;20.70;1.00
11536;DHT22;5824;49.336;8.652;2023-11-19T12:03:13;22.50;1.00
11536;DHT22;5824;49.336;8.652;2023-11-19T12:05:41;22.70;1.00
11536;DHT22;5824;49.336;8.652;2023-11-19T12:08:07;23.10;1.00
11536;DHT22;5824;49.336;8.652;2023-11-19T12:10:49;24.50;1.00
11536;DHT22;5824;49.336;8.652;2023-11-19T12:13:16;26.70;1.00
11536;DHT22;5824;49.336;8.652;2023-11-19T12:18:30;26.60;1.00
11536;DHT22;5824;49.336;8.652;2023-11-19T12:20:56;25.90;1.00
11536;DHT22;5824;49.336;8.652;2023-11-19T12:23:22;23.40;1.00
11536;DHT22;5824;49.336;8.652;2023-11-19T12:25:48;22.00;1.00
11536;DHT22;5824;49.336;8.652;2023-11-19T12:28:15;21.90;1.00
11536;DHT22;5824;49.336;8.652;2023-11-19T12:30:42;22.40;1.00
11536;DHT22;5824;49.336;8.652;2023-11-19T12:33:09;23.10;1.00
11536;DHT22;5824;49.336;8.652;2023-11-19T12:35:42;23.10;1.00
11536;DHT22;5824;49.336;8.652;2023-11-19T12:38:21;22.30;1.00
11536;DHT22;5824;49.336;8.652;2023-11-19T12:40:47;22.20;1.00
11536;DHT22;5824;49.336;8.652;2023-11-19T12:43:22;21.60;1.00
11536;DHT22;5824;49.336;8.652;2023-11-19T12:45:48;20.70;1.00
11536;DHT22;5824;49.336;8.652;2023-11-19T12:48:13;19.70;1.00
11536;DHT22;5824;49.336;8.652;2023-11-19T12:50:51;19.20;1.00
11536;DHT22;5824;49.336;8.652;2023-11-19T12:53:18;18.90;1.00
11536;DHT22;5824;49.336;8.652;2023-11-19T12:55:43;18.40;1.00
11536;DHT22;5824;49.336;8.652;2023-11-19T12:58:09;18.10;1.00
11536;DHT22;5824;49.336;8.652;2023-11-19T13:00:34;17.90;1.00
11536;DHT22;5824;49.336;8.652;2023-11-19T13:03:00;17.70;1.00
11536;DHT22;5824;49.336;8.652;2023-11-19T13:05:33;17.70;1.00
11536;DHT22;5824;49.336;8.652;2023-11-19T13:08:02;17.60;1.00
11536;DHT22;5824;49.336;8.652;2023-11-19T13:10:28;17.50;1.00
11536;DHT22;5824;49.336;8.652;2023-11-19T13:13:08;17.40;1.00
11536;DHT22;5824;49.336;8.652;2023-11-19T13:15:34;17.20;1.00
11536;DHT22;5824;49.336;8.652;2023-11-19T13:18:00;17.10;1.00
11536;DHT22;5824;49.336;8.652;2023-11-19T13:20:26;16.90;1.00
11536;DHT22;5824;49.336;8.652;2023-11-19T13:22:59;16.90;1.00
11536;DHT22;5824;49.336;8.652;2023-11-19T13:25:26;16.80;1.00
11536;DHT22;5824;49.336;8.652;2023-11-19T13:27:52;16.70;1.00
11536;DHT22;5824;49.336;8.652;2023-11-19T13:30:17;16.60;1.00
11536;DHT22;5824;49.336;8.652;2023-11-19T13:32:44;16.50;1.00
11536;DHT22;5824;49.336;8.652;2023-11-19T13:35:12;16.60;1.00
11536;DHT22;5824;49.336;8.652;2023-11-19T13:37:38;16.40;1.00
11536;DHT22;5824;49.336;8.652;2023-11-19T13:40:04;16.40;1.00
11536;DHT22;5824;49.336;8.652;2023-11-19T13:42:30;16.50;1.00
11536;DHT22;5824;49.336;8.652;2023-11-19T13:44:55;16.80;1.00
11536;DHT22;5824;49.336;8.652;2023-11-19T13:47:21;17.00;1.00
11536;DHT22;5824;49.336;8.652;2023-11-19T13:49:47;17.20;1.00
11536;DHT22;5824;49.336;8.652;2023-11-19T13:52:12;17.50;1.00
11536;DHT22;5824;49.336;8.652;2023-11-19T13:54:38;17.80;1.00
11536;DHT22;5824;49.336;8.652;2023-11-19T13:57:04;18.00;1.00
11536;DHT22;5824;49.336;8.652;2023-11-19T13:59:30;17.60;1.00
11536;DHT22;5824;49.336;8.652;2023-11-19T14:01:57;17.60;1.00
11536;DHT22;5824;49.336;8.652;2023-11-19T14:04:23;17.50;1.00
11536;DHT22;5824;49.336;8.652;2023-11-19T14:06:48;17.50;1.00
11536;DHT22;5824;49.336;8.652;2023-11-19T14:09:14;17.60;1.00
11536;DHT22;5824;49.336;8.652;2023-11-19T14:11:40;17.60;1.00
11536;DHT22;5824;49.336;8.652;2023-11-19T14:14:06;17.80;1.00
11536;DHT22;5824;49.336;8.652;2023-11-19T14:16:31;17.60;1.00
11536;DHT22;5824;49.336;8.652;2023-11-19T14:18:57;17.60;1.00
11536;DHT22;5824;49.336;8.652;2023-11-19T14:21:23;19.70;1.00
11536;DHT22;5824;49.336;8.652;2023-11-19T14:23:50;17.70;1.00
11536;DHT22;5824;49.336;8.652;2023-11-19T14:26:15;17.70;1.00
11536;DHT22;5824;49.336;8.652;2023-11-19T14:28:41;17.60;1.00
11536;DHT22;5824;49.336;8.652;2023-11-19T14:31:07;17.20;1.00
11536;DHT22;5824;49.336;8.652;2023-11-19T14:33:32;17.00;1.00
11536;DHT22;5824;49.336;8.652;2023-11-19T14:36:00;16.90;1.00
11536;DHT22;5824;49.336;8.652;2023-11-19T14:38:25;18.50;1.00
11536;DHT22;5824;49.336;8.652;2023-11-19T14:40:51;16.70;1.00
11536;DHT22;5824;49.336;8.652;2023-11-19T14:43:16;16.60;1.00
11536;DHT22;5824;49.336;8.652;2023-11-19T14:45:42;16.50;1.00
11536;DHT22;5824;49.336;8.652;2023-11-19T14:48:08;16.50;1.00
11536;DHT22;5824;49.336;8.652;2023-11-19T14:50:33;16.40;1.00
11536;DHT22;5824;49.336;8.652;2023-11-19T14:52:58;16.20;1.00
11536;DHT22;5824;49.336;8.652;2023-11-19T14:55:24;16.20;1.00
11536;DHT22;5824;49.336;8.652;2023-11-19T14:57:49;16.10;1.00
11536;DHT22;5824;49.336;8.652;2023-11-19T15:00:16;16.00;1.00
11536;DHT22;5824;49.336;8.652;2023-11-19T15:02:42;16.00;1.00
11536;DHT22;5824;49.336;8.652;2023-11-19T15:05:08;15.90;1.00
11536;DHT22;5824;49.336;8.652;2023-11-19T15:07:40;15.80;1.00
11536;DHT22;5824;49.336;8.652;2023-11-19T15:10:06;15.80;1.00
11536;DHT22;5824;49.336;8.652;2023-11-19T15:12:38;15.70;1.00
11536;DHT22;5824;49.336;8.652;2023-11-19T15:15:07;15.70;1.00
11536;DHT22;5824;49.336;8.652;2023-11-19T15:17:33;15.60;1.00
11536;DHT22;5824;49.336;8.652;2023-11-19T15:19:59;15.60;1.00
11536;DHT22;5824;49.336;8.652;2023-11-19T15:22:24;15.50;1.00
11536;DHT22;5824;49.336;8.652;2023-11-19T15:24:50;15.60;1.00
11536;DHT22;5824;49.336;8.652;2023-11-19T15:27:15;15.40;1.00
11536;DHT22;5824;49.336;8.652;2023-11-19T15:29:41;15.40;1.00
11536;DHT22;5824;49.336;8.652;2023-11-19T15:32:07;15.40;1.00
11536;DHT22;5824;49.336;8.652;2023-11-19T15:34:33;15.40;1.00
11536;DHT22;5824;49.336;8.652;2023-11-19T15:36:59;15.40;1.00
11536;DHT22;5824;49.336;8.652;2023-11-19T15:39:26;15.40;1.00
11536;DHT22;5824;49.336;8.652;2023-11-19T15:41:52;15.40;1.00
11536;DHT22;5824;49.336;8.652;2023-11-19T15:44:18;15.30;1.00
11536;DHT22;5824;49.336;8.652;2023-11-19T15:46:43;15.30;1.00
11536;DHT22;5824;49.336;8.652;2023-11-19T15:49:09;15.30;1.00
11536;DHT22;5824;49.336;8.652;2023-11-19T15:51:34;15.20;1.00
11536;DHT22;5824;49.336;8.652;2023-11-19T15:54:00;15.30;1.00
11536;DHT22;5824;49.336;8.652;2023-11-19T15:56:25;15.20;1.00
11536;DHT22;5824;49.336;8.652;2023-11-19T15:58:51;15.00;1.00
11536;DHT22;5824;49.336;8.652;2023-11-19T16:01:17;15.00;1.00
11536;DHT22;5824;49.336;8.652;2023-11-19T16:03:43;15.00;1.00
11536;DHT22;5824;49.336;8.652;2023-11-19T16:06:09;15.00;1.00
11536;DHT22;5824;49.336;8.652;2023-11-19T16:08:39;15.10;1.00
11536;DHT22;5824;49.336;8.652;2023-11-19T16:11:04;15.10;1.00
11536;DHT22;5824;49.336;8.652;2023-11-19T16:13:31;15.10;1.00
11536;DHT22;5824;49.336;8.652;2023-11-19T16:15:56;15.10;1.00
11536;DHT22;5824;49.336;8.652;2023-11-19T16:18:22;15.00;1.00